sensor_id;sensor_type;location;lat;lon;timestamp;temperature;humidity
70145;DHT22;57510;51.068;3.872;2022-11-22T00:00:50;7.10;99.90
70145;DHT22;57510;51.068;3.872;2022-11-22T00:03:15;7.10;99.90
70145;DHT22;57510;51.068;3.872;2022-11-22T00:05:41;7.00;99.90
70145;DHT22;57510;51.068;3.872;2022-11-22T00:08:06;7.00;99.90
70145;DHT22;57510;51.068;3.872;2022-11-22T00:10:32;7.00;99.90
70145;DHT22;57510;51.068;3.872;2022-11-22T00:12:58;7.00;99.90
70145;DHT22;57510;51.068;3.872;2022-11-22T00:15:24;7.00;99.90
70145;DHT22;57510;51.068;3.872;2022-11-22T00:17:50;7.00;99.90
70145;DHT22;57510;51.068;3.872;2022-11-22T00:20:16;6.90;99.90
70145;DHT22;57510;51.068;3.872;2022-11-22T00:22:42;6.90;99.90
70145;DHT22;57510;51.068;3.872;2022-11-22T00:25:08;6.90;99.90
70145;DHT22;57510;51.068;3.872;2022-11-22T00:27:34;6.90;99.90
70145;DHT22;57510;51.068;3.872;2022-11-22T00:30:00;6.80;99.90
70145;DHT22;57510;51.068;3.872;2022-11-22T00:32:26;6.90;99.90
70145;DHT22;57510;51.068;3.872;2022-11-22T00:34:51;6.90;99.90
70145;DHT22;57510;51.068;3.872;2022-11-22T00:37:17;6.80;99.90
70145;DHT22;57510;51.068;3.872;2022-11-22T00:39:43;6.90;99.90
70145;DHT22;57510;51.068;3.872;2022-11-22T00:42:09;6.90;99.90
70145;DHT22;57510;51.068;3.872;2022-11-22T00:44:35;6.90;99.90
70145;DHT22;57510;51.068;3.872;2022-11-22T00:47:01;6.80;99.90
70145;DHT22;57510;51.068;3.872;2022-11-22T00:49:27;6.80;99.90
70145;DHT22;57510;51.068;3.872;2022-11-22T00:51:56;6.80;99.90
70145;DHT22;57510;51.068;3.872;2022-11-22T00:54:21;6.90;99.90
70145;DHT22;57510;51.068;3.872;2022-11-22T00:56:47;6.80;99.90
70145;DHT22;57510;51.068;3.872;2022-11-22T00:59:13;6.70;99.90
70145;DHT22;57510;51.068;3.872;2022-11-22T01:01:38;6.80;99.90
70145;DHT22;57510;51.068;3.872;2022-11-22T01:04:04;6.80;99.90
70145;DHT22;57510;51.068;3.872;2022-11-22T01:06:30;6.80;99.90
70145;DHT22;57510;51.068;3.872;2022-11-22T01:08:58;6.80;99.90
70145;DHT22;57510;51.068;3.872;2022-11-22T01:11:23;6.70;99.90
70145;DHT22;57510;51.068;3.872;2022-11-22T01:13:49;6.70;99.90
70145;DHT22;57510;51.068;3.872;2022-11-22T01:16:15;6.80;99.90
70145;DHT22;57510;51.068;3.872;2022-11-22T01:18:41;6.80;99.90
70145;DHT22;57510;51.068;3.872;2022-11-22T01:21:07;6.70;99.90
70145;DHT22;57510;51.068;3.872;2022-11-22T01:23:33;6.70;99.90
70145;DHT22;57510;51.068;3.872;2022-11-22T01:25:59;6.60;99.90
70145;DHT22;57510;51.068;3.872;2022-11-22T01:28:25;6.60;99.90
70145;DHT22;57510;51.068;3.872;2022-11-22T01:30:52;6.50;99.90
70145;DHT22;57510;51.068;3.872;2022-11-22T01:33:19;6.60;99.90
70145;DHT22;57510;51.068;3.872;2022-11-22T01:35:46;6.50;99.90
70145;DHT22;57510;51.068;3.872;2022-11-22T01:38:12;6.50;99.90
70145;DHT22;57510;51.068;3.872;2022-11-22T01:40:38;6.40;99.90
70145;DHT22;57510;51.068;3.872;2022-11-22T01:43:16;6.40;99.90
70145;DHT22;57510;51.068;3.872;2022-11-22T01:45:54;6.40;99.90
70145;DHT22;57510;51.068;3.872;2022-11-22T01:50:56;6.40;99.90
70145;DHT22;57510;51.068;3.872;2022-11-22T01:53:28;6.40;99.90
70145;DHT22;57510;51.068;3.872;2022-11-22T01:55:58;6.30;99.90
70145;DHT22;57510;51.068;3.872;2022-11-22T01:58:26;6.30;99.90
70145;DHT22;57510;51.068;3.872;2022-11-22T02:00:57;6.30;99.90
70145;DHT22;57510;51.068;3.872;2022-11-22T02:03:25;6.20;99.90
70145;DHT22;57510;51.068;3.872;2022-11-22T02:05:53;6.20;99.90
70145;DHT22;57510;51.068;3.872;2022-11-22T02:09:17;6.20;99.90
70145;DHT22;57510;51.068;3.872;2022-11-22T02:11:24;6.20;99.90
70145;DHT22;57510;51.068;3.872;2022-11-22T02:13:54;6.10;99.90
70145;DHT22;57510;51.068;3.872;2022-11-22T02:16:21;6.10;99.90
70145;DHT22;57510;51.068;3.872;2022-11-22T02:18:47;6.10;99.90
70145;DHT22;57510;51.068;3.872;2022-11-22T02:21:13;6.10;99.90
70145;DHT22;57510;51.068;3.872;2022-11-22T02:26:10;6.00;99.90
70145;DHT22;57510;51.068;3.872;2022-11-22T02:28:38;6.00;99.90
70145;DHT22;57510;51.068;3.872;2022-11-22T02:31:06;6.00;99.90
70145;DHT22;57510;51.068;3.872;2022-11-22T02:33:33;6.10;99.90
70145;DHT22;57510;51.068;3.872;2022-11-22T02:35:59;6.10;99.90
70145;DHT22;57510;51.068;3.872;2022-11-22T02:38:29;6.00;99.90
70145;DHT22;57510;51.068;3.872;2022-11-22T02:41:05;6.00;99.90
70145;DHT22;57510;51.068;3.872;2022-11-22T02:43:34;5.90;99.90
70145;DHT22;57510;51.068;3.872;2022-11-22T02:46:09;5.90;99.90
70145;DHT22;57510;51.068;3.872;2022-11-22T02:48:42;5.90;99.90
70145;DHT22;57510;51.068;3.872;2022-11-22T02:51:08;5.90;99.90
70145;DHT22;57510;51.068;3.872;2022-11-22T02:53:37;5.90;99.90
70145;DHT22;57510;51.068;3.872;2022-11-22T02:56:03;5.90;99.90
70145;DHT22;57510;51.068;3.872;2022-11-22T02:58:28;5.90;99.90
70145;DHT22;57510;51.068;3.872;2022-11-22T03:00:54;5.80;99.90
70145;DHT22;57510;51.068;3.872;2022-11-22T03:03:20;5.80;99.90
70145;DHT22;57510;51.068;3.872;2022-11-22T03:05:46;5.80;99.90
70145;DHT22;57510;51.068;3.872;2022-11-22T03:08:12;5.80;99.90
70145;DHT22;57510;51.068;3.872;2022-11-22T03:10:37;5.80;99.90
70145;DHT22;57510;51.068;3.872;2022-11-22T03:13:03;5.70;99.90
70145;DHT22;57510;51.068;3.872;2022-11-22T03:15:29;5.70;99.90
70145;DHT22;57510;51.068;3.872;2022-11-22T03:17:59;5.70;99.90
70145;DHT22;57510;51.068;3.872;2022-11-22T03:20:25;5.70;99.90
70145;DHT22;57510;51.068;3.872;2022-11-22T03:22:51;5.70;99.90
70145;DHT22;57510;51.068;3.872;2022-11-22T03:25:17;5.70;99.90
70145;DHT22;57510;51.068;3.872;2022-11-22T03:27:43;5.70;99.90
70145;DHT22;57510;51.068;3.872;2022-11-22T03:30:09;5.60;99.90
70145;DHT22;57510;51.068;3.872;2022-11-22T03:32:38;5.70;99.90
70145;DHT22;57510;51.068;3.872;2022-11-22T03:35:04;5.70;99.90
70145;DHT22;57510;51.068;3.872;2022-11-22T03:37:31;5.70;99.90
70145;DHT22;57510;51.068;3.872;2022-11-22T03:39:56;5.60;99.90
70145;DHT22;57510;51.068;3.872;2022-11-22T03:42:22;5.60;99.90
70145;DHT22;57510;51.068;3.872;2022-11-22T03:44:48;5.60;99.90
70145;DHT22;57510;51.068;3.872;2022-11-22T03:47:14;5.60;99.90
70145;DHT22;57510;51.068;3.872;2022-11-22T03:49:40;5.60;99.90
70145;DHT22;57510;51.068;3.872;2022-11-22T03:52:06;5.60;99.90
70145;DHT22;57510;51.068;3.872;2022-11-22T03:54:32;5.60;99.90
70145;DHT22;57510;51.068;3.872;2022-11-22T03:56:58;5.60;99.90
70145;DHT22;57510;51.068;3.872;2022-11-22T03:59:24;5.60;99.90
70145;DHT22;57510;51.068;3.872;2022-11-22T04:01:50;5.60;99.90
70145;DHT22;57510;51.068;3.872;2022-11-22T04:04:16;5.60;99.90
70145;DHT22;57510;51.068;3.872;2022-11-22T04:06:45;5.70;99.90
70145;DHT22;57510;51.068;3.872;2022-11-22T04:09:11;5.60;99.90
70145;DHT22;57510;51.068;3.872;2022-11-22T04:11:36;5.70;99.90
70145;DHT22;57510;51.068;3.872;2022-11-22T04:14:02;5.70;99.90
70145;DHT22;57510;51.068;3.872;2022-11-22T04:16:46;5.70;99.90
70145;DHT22;57510;51.068;3.872;2022-11-22T04:19:12;5.70;99.90
70145;DHT22;57510;51.068;3.872;2022-11-22T04:21:38;5.80;99.90
70145;DHT22;57510;51.068;3.872;2022-11-22T04:24:08;5.90;99.90
70145;DHT22;57510;51.068;3.872;2022-11-22T04:26:53;5.90;99.90
70145;DHT22;57510;51.068;3.872;2022-11-22T04:29:19;5.90;99.90
70145;DHT22;57510;51.068;3.872;2022-11-22T04:31:48;5.90;99.90
70145;DHT22;57510;51.068;3.872;2022-11-22T04:34:33;6.00;99.90
70145;DHT22;57510;51.068;3.872;2022-11-22T04:37:00;6.00;99.90
70145;DHT22;57510;51.068;3.872;2022-11-22T04:39:26;5.90;99.90
70145;DHT22;57510;51.068;3.872;2022-11-22T04:41:53;5.90;99.90
70145;DHT22;57510;51.068;3.872;2022-11-22T04:44:37;5.80;99.90
70145;DHT22;57510;51.068;3.872;2022-11-22T04:47:11;5.80;99.90
70145;DHT22;57510;51.068;3.872;2022-11-22T04:49:57;5.90;99.90
70145;DHT22;57510;51.068;3.872;2022-11-22T04:52:23;6.00;99.90
70145;DHT22;57510;51.068;3.872;2022-11-22T04:55:07;6.00;99.90
70145;DHT22;57510;51.068;3.872;2022-11-22T04:57:35;6.00;99.90
70145;DHT22;57510;51.068;3.872;2022-11-22T05:00:00;6.10;99.90
70145;DHT22;57510;51.068;3.872;2022-11-22T05:02:26;6.10;99.90
70145;DHT22;57510;51.068;3.872;2022-11-22T05:04:55;6.10;99.90
70145;DHT22;57510;51.068;3.872;2022-11-22T05:07:21;6.20;99.90
70145;DHT22;57510;51.068;3.872;2022-11-22T05:09:46;6.20;99.90
70145;DHT22;57510;51.068;3.872;2022-11-22T05:12:12;6.20;99.90
70145;DHT22;57510;51.068;3.872;2022-11-22T05:14:38;6.20;99.90
70145;DHT22;57510;51.068;3.872;2022-11-22T05:17:03;6.20;99.90
70145;DHT22;57510;51.068;3.872;2022-11-22T05:19:29;6.20;99.90
70145;DHT22;57510;51.068;3.872;2022-11-22T05:21:56;6.30;99.90
70145;DHT22;57510;51.068;3.872;2022-11-22T05:24:21;6.30;99.90
70145;DHT22;57510;51.068;3.872;2022-11-22T05:26:47;6.20;99.90
70145;DHT22;57510;51.068;3.872;2022-11-22T05:29:14;6.30;99.90
70145;DHT22;57510;51.068;3.872;2022-11-22T05:31:39;6.40;99.90
70145;DHT22;57510;51.068;3.872;2022-11-22T05:34:09;6.40;99.90
70145;DHT22;57510;51.068;3.872;2022-11-22T05:36:35;6.40;99.90
70145;DHT22;57510;51.068;3.872;2022-11-22T05:39:01;6.40;99.90
70145;DHT22;57510;51.068;3.872;2022-11-22T05:41:27;6.40;99.90
70145;DHT22;57510;51.068;3.872;2022-11-22T05:43:54;6.40;99.90
70145;DHT22;57510;51.068;3.872;2022-11-22T05:46:23;6.50;99.90
70145;DHT22;57510;51.068;3.872;2022-11-22T05:48:51;6.60;99.90
70145;DHT22;57510;51.068;3.872;2022-11-22T05:51:18;6.60;99.90
70145;DHT22;57510;51.068;3.872;2022-11-22T05:53:45;6.60;99.90
70145;DHT22;57510;51.068;3.872;2022-11-22T05:56:19;6.50;99.90
70145;DHT22;57510;51.068;3.872;2022-11-22T05:58:46;6.60;99.90
70145;DHT22;57510;51.068;3.872;2022-11-22T06:01:19;6.60;99.90
70145;DHT22;57510;51.068;3.872;2022-11-22T06:03:49;6.60;99.90
70145;DHT22;57510;51.068;3.872;2022-11-22T06:06:16;6.70;99.90
70145;DHT22;57510;51.068;3.872;2022-11-22T06:08:43;6.60;99.90
70145;DHT22;57510;51.068;3.872;2022-11-22T06:11:20;6.70;99.90
70145;DHT22;57510;51.068;3.872;2022-11-22T06:13:49;6.60;99.90
70145;DHT22;57510;51.068;3.872;2022-11-22T06:16:20;6.60;99.90
70145;DHT22;57510;51.068;3.872;2022-11-22T06:18:45;6.60;99.90
70145;DHT22;57510;51.068;3.872;2022-11-22T06:21:17;6.60;99.90
70145;DHT22;57510;51.068;3.872;2022-11-22T06:23:43;6.60;99.90
70145;DHT22;57510;51.068;3.872;2022-11-22T06:26:11;6.70;99.90
70145;DHT22;57510;51.068;3.872;2022-11-22T06:28:38;6.70;99.90
70145;DHT22;57510;51.068;3.872;2022-11-22T06:31:18;6.70;99.90
70145;DHT22;57510;51.068;3.872;2022-11-22T06:33:45;6.60;99.90
70145;DHT22;57510;51.068;3.872;2022-11-22T06:36:16;6.70;99.90
70145;DHT22;57510;51.068;3.872;2022-11-22T06:38:42;6.70;99.90
70145;DHT22;57510;51.068;3.872;2022-11-22T06:41:10;6.80;99.90
70145;DHT22;57510;51.068;3.872;2022-11-22T06:43:37;6.80;99.90
70145;DHT22;57510;51.068;3.872;2022-11-22T06:46:05;6.90;99.90
70145;DHT22;57510;51.068;3.872;2022-11-22T06:48:33;6.90;99.90
70145;DHT22;57510;51.068;3.872;2022-11-22T06:51:04;6.80;99.90
70145;DHT22;57510;51.068;3.872;2022-11-22T06:53:32;6.90;99.90
70145;DHT22;57510;51.068;3.872;2022-11-22T06:56:10;6.80;99.90
70145;DHT22;57510;51.068;3.872;2022-11-22T06:58:36;6.80;99.90
70145;DHT22;57510;51.068;3.872;2022-11-22T07:01:08;6.80;99.90
70145;DHT22;57510;51.068;3.872;2022-11-22T07:03:37;6.80;99.90
70145;DHT22;57510;51.068;3.872;2022-11-22T07:06:05;6.80;99.90
70145;DHT22;57510;51.068;3.872;2022-11-22T07:08:32;6.80;99.90
70145;DHT22;57510;51.068;3.872;2022-11-22T07:11:05;6.90;99.90
70145;DHT22;57510;51.068;3.872;2022-11-22T07:13:32;6.80;99.90
70145;DHT22;57510;51.068;3.872;2022-11-22T07:15:59;6.80;99.90
70145;DHT22;57510;51.068;3.872;2022-11-22T07:18:26;6.80;99.90
70145;DHT22;57510;51.068;3.872;2022-11-22T07:20:59;6.90;99.90
70145;DHT22;57510;51.068;3.872;2022-11-22T07:23:26;6.80;99.90
70145;DHT22;57510;51.068;3.872;2022-11-22T07:25:52;6.80;99.90
70145;DHT22;57510;51.068;3.872;2022-11-22T07:28:18;6.70;99.90
70145;DHT22;57510;51.068;3.872;2022-11-22T07:30:44;6.80;99.90
70145;DHT22;57510;51.068;3.872;2022-11-22T07:33:09;6.80;99.90
70145;DHT22;57510;51.068;3.872;2022-11-22T07:35:36;6.90;99.90
70145;DHT22;57510;51.068;3.872;2022-11-22T07:38:02;6.90;99.90
70145;DHT22;57510;51.068;3.872;2022-11-22T07:40:29;6.90;99.90
70145;DHT22;57510;51.068;3.872;2022-11-22T07:42:54;6.90;99.90
70145;DHT22;57510;51.068;3.872;2022-11-22T07:45:23;6.80;99.90
70145;DHT22;57510;51.068;3.872;2022-11-22T07:47:49;6.80;99.90
70145;DHT22;57510;51.068;3.872;2022-11-22T07:50:15;6.90;99.90
70145;DHT22;57510;51.068;3.872;2022-11-22T07:52:41;6.90;99.90
70145;DHT22;57510;51.068;3.872;2022-11-22T07:55:07;7.00;99.90
70145;DHT22;57510;51.068;3.872;2022-11-22T07:57:33;7.00;99.90
70145;DHT22;57510;51.068;3.872;2022-11-22T07:59:59;7.00;99.90
70145;DHT22;57510;51.068;3.872;2022-11-22T08:02:25;7.10;99.90
70145;DHT22;57510;51.068;3.872;2022-11-22T08:04:52;7.20;99.90
70145;DHT22;57510;51.068;3.872;2022-11-22T08:07:18;7.20;99.90
70145;DHT22;57510;51.068;3.872;2022-11-22T08:09:44;7.20;99.90
70145;DHT22;57510;51.068;3.872;2022-11-22T08:12:09;7.30;99.90
70145;DHT22;57510;51.068;3.872;2022-11-22T08:14:35;7.30;99.90
70145;DHT22;57510;51.068;3.872;2022-11-22T08:17:01;7.40;99.90
70145;DHT22;57510;51.068;3.872;2022-11-22T08:19:27;7.50;99.90
70145;DHT22;57510;51.068;3.872;2022-11-22T08:21:52;7.40;99.90
70145;DHT22;57510;51.068;3.872;2022-11-22T08:24:18;7.50;99.90
70145;DHT22;57510;51.068;3.872;2022-11-22T08:26:44;7.40;99.90
70145;DHT22;57510;51.068;3.872;2022-11-22T08:29:11;7.50;99.90
70145;DHT22;57510;51.068;3.872;2022-11-22T08:31:40;7.60;99.90
70145;DHT22;57510;51.068;3.872;2022-11-22T08:34:06;7.50;99.90
70145;DHT22;57510;51.068;3.872;2022-11-22T08:36:32;7.50;99.90
70145;DHT22;57510;51.068;3.872;2022-11-22T08:38:57;7.60;99.90
70145;DHT22;57510;51.068;3.872;2022-11-22T08:41:23;7.60;99.90
70145;DHT22;57510;51.068;3.872;2022-11-22T08:43:49;7.70;99.90
70145;DHT22;57510;51.068;3.872;2022-11-22T08:46:16;7.80;99.90
70145;DHT22;57510;51.068;3.872;2022-11-22T08:48:44;7.80;99.90
70145;DHT22;57510;51.068;3.872;2022-11-22T08:51:13;7.80;99.90
70145;DHT22;57510;51.068;3.872;2022-11-22T08:53:40;7.90;99.90
70145;DHT22;57510;51.068;3.872;2022-11-22T08:56:09;7.90;99.90
70145;DHT22;57510;51.068;3.872;2022-11-22T08:58:35;7.80;99.90
70145;DHT22;57510;51.068;3.872;2022-11-22T09:01:09;7.80;99.90
70145;DHT22;57510;51.068;3.872;2022-11-22T09:03:38;7.90;99.90
70145;DHT22;57510;51.068;3.872;2022-11-22T09:06:10;8.00;99.90
70145;DHT22;57510;51.068;3.872;2022-11-22T09:08:36;8.00;99.90
70145;DHT22;57510;51.068;3.872;2022-11-22T09:11:08;8.10;99.90
70145;DHT22;57510;51.068;3.872;2022-11-22T09:13:33;8.20;99.90
70145;DHT22;57510;51.068;3.872;2022-11-22T09:16:08;8.10;99.90
70145;DHT22;57510;51.068;3.872;2022-11-22T09:18:34;8.20;99.90
70145;DHT22;57510;51.068;3.872;2022-11-22T09:21:02;8.20;99.90
70145;DHT22;57510;51.068;3.872;2022-11-22T09:23:28;8.20;99.90
70145;DHT22;57510;51.068;3.872;2022-11-22T09:26:20;8.30;99.90
70145;DHT22;57510;51.068;3.872;2022-11-22T09:28:47;8.30;99.90
70145;DHT22;57510;51.068;3.872;2022-11-22T09:31:15;8.30;99.90
70145;DHT22;57510;51.068;3.872;2022-11-22T09:33:45;8.40;99.90
70145;DHT22;57510;51.068;3.872;2022-11-22T09:36:19;8.40;99.90
70145;DHT22;57510;51.068;3.872;2022-11-22T09:38:45;8.40;99.90
70145;DHT22;57510;51.068;3.872;2022-11-22T09:41:29;8.50;99.90
70145;DHT22;57510;51.068;3.872;2022-11-22T09:44:17;8.40;99.90
70145;DHT22;57510;51.068;3.872;2022-11-22T09:46:55;8.30;99.90
70145;DHT22;57510;51.068;3.872;2022-11-22T09:54:39;8.50;99.90
70145;DHT22;57510;51.068;3.872;2022-11-22T09:57:17;8.50;99.90
70145;DHT22;57510;51.068;3.872;2022-11-22T09:59:46;8.60;99.90
70145;DHT22;57510;51.068;3.872;2022-11-22T10:02:31;8.60;99.90
70145;DHT22;57510;51.068;3.872;2022-11-22T10:05:00;8.50;99.90
70145;DHT22;57510;51.068;3.872;2022-11-22T10:07:37;8.50;99.90
70145;DHT22;57510;51.068;3.872;2022-11-22T10:10:31;8.50;99.90
70145;DHT22;57510;51.068;3.872;2022-11-22T10:13:30;8.60;99.90
70145;DHT22;57510;51.068;3.872;2022-11-22T10:16:12;8.80;99.90
70145;DHT22;57510;51.068;3.872;2022-11-22T10:19:09;8.80;99.90
70145;DHT22;57510;51.068;3.872;2022-11-22T10:21:36;8.90;99.90
70145;DHT22;57510;51.068;3.872;2022-11-22T10:24:02;9.00;99.90
70145;DHT22;57510;51.068;3.872;2022-11-22T10:26:30;9.00;99.90
70145;DHT22;57510;51.068;3.872;2022-11-22T10:29:29;9.00;99.90
70145;DHT22;57510;51.068;3.872;2022-11-22T10:32:17;9.30;99.90
70145;DHT22;57510;51.068;3.872;2022-11-22T10:39:57;9.10;99.90
70145;DHT22;57510;51.068;3.872;2022-11-22T10:45:05;9.30;99.90
70145;DHT22;57510;51.068;3.872;2022-11-22T10:50:32;9.10;99.90
70145;DHT22;57510;51.068;3.872;2022-11-22T11:03:52;9.30;99.90
70145;DHT22;57510;51.068;3.872;2022-11-22T11:06:49;9.30;99.90
70145;DHT22;57510;51.068;3.872;2022-11-22T11:11:51;9.20;99.90
70145;DHT22;57510;51.068;3.872;2022-11-22T11:14:30;9.10;99.90
70145;DHT22;57510;51.068;3.872;2022-11-22T11:16:59;9.20;99.90
70145;DHT22;57510;51.068;3.872;2022-11-22T11:19:29;9.30;99.90
70145;DHT22;57510;51.068;3.872;2022-11-22T11:24:30;9.20;99.90
70145;DHT22;57510;51.068;3.872;2022-11-22T11:26:57;9.20;99.90
70145;DHT22;57510;51.068;3.872;2022-11-22T11:29:31;9.20;99.90
70145;DHT22;57510;51.068;3.872;2022-11-22T11:32:09;9.30;99.90
70145;DHT22;57510;51.068;3.872;2022-11-22T11:34:37;9.50;99.90
70145;DHT22;57510;51.068;3.872;2022-11-22T11:37:04;9.70;99.90
70145;DHT22;57510;51.068;3.872;2022-11-22T11:39:34;9.70;99.90
70145;DHT22;57510;51.068;3.872;2022-11-22T11:42:03;9.70;99.90
70145;DHT22;57510;51.068;3.872;2022-11-22T11:44:46;9.70;99.90
70145;DHT22;57510;51.068;3.872;2022-11-22T11:47:18;9.90;99.90
70145;DHT22;57510;51.068;3.872;2022-11-22T11:49:50;10.10;99.90
70145;DHT22;57510;51.068;3.872;2022-11-22T11:52:23;10.10;99.70
70145;DHT22;57510;51.068;3.872;2022-11-22T11:55:03;10.00;99.50
70145;DHT22;57510;51.068;3.872;2022-11-22T11:57:33;9.90;99.70
70145;DHT22;57510;51.068;3.872;2022-11-22T12:00:01;9.70;99.90
70145;DHT22;57510;51.068;3.872;2022-11-22T12:02:41;9.80;99.90
70145;DHT22;57510;51.068;3.872;2022-11-22T12:07:41;9.90;99.90
70145;DHT22;57510;51.068;3.872;2022-11-22T12:21:25;10.10;99.90
70145;DHT22;57510;51.068;3.872;2022-11-22T12:24:02;10.20;99.70
70145;DHT22;57510;51.068;3.872;2022-11-22T12:26:30;10.20;99.90
70145;DHT22;57510;51.068;3.872;2022-11-22T12:28:57;10.30;99.60
70145;DHT22;57510;51.068;3.872;2022-11-22T12:33:56;10.40;99.50
70145;DHT22;57510;51.068;3.872;2022-11-22T12:39:04;10.50;99.50
70145;DHT22;57510;51.068;3.872;2022-11-22T12:41:34;10.60;99.40
70145;DHT22;57510;51.068;3.872;2022-11-22T12:44:03;10.50;99.40
70145;DHT22;57510;51.068;3.872;2022-11-22T12:46:38;10.40;99.30
70145;DHT22;57510;51.068;3.872;2022-11-22T12:52:13;10.20;99.90
70145;DHT22;57510;51.068;3.872;2022-11-22T12:57:24;10.40;99.90
70145;DHT22;57510;51.068;3.872;2022-11-22T12:59:56;10.40;99.80
70145;DHT22;57510;51.068;3.872;2022-11-22T13:02:39;10.30;99.80
70145;DHT22;57510;51.068;3.872;2022-11-22T13:13:36;10.20;99.90
70145;DHT22;57510;51.068;3.872;2022-11-22T13:16:07;10.20;99.90
70145;DHT22;57510;51.068;3.872;2022-11-22T13:18:37;10.40;99.90
70145;DHT22;57510;51.068;3.872;2022-11-22T13:24:24;10.40;99.90
70145;DHT22;57510;51.068;3.872;2022-11-22T13:27:38;10.70;99.90
70145;DHT22;57510;51.068;3.872;2022-11-22T13:30:23;10.80;99.90
70145;DHT22;57510;51.068;3.872;2022-11-22T13:32:54;10.90;99.60
70145;DHT22;57510;51.068;3.872;2022-11-22T13:35:28;11.10;99.70
70145;DHT22;57510;51.068;3.872;2022-11-22T13:37:57;11.10;99.70
70145;DHT22;57510;51.068;3.872;2022-11-22T13:40:33;11.20;99.60
70145;DHT22;57510;51.068;3.872;2022-11-22T13:45:57;11.10;99.40
70145;DHT22;57510;51.068;3.872;2022-11-22T13:51:06;11.20;99.50
70145;DHT22;57510;51.068;3.872;2022-11-22T13:53:37;11.30;99.40
70145;DHT22;57510;51.068;3.872;2022-11-22T14:06:52;10.70;99.90
70145;DHT22;57510;51.068;3.872;2022-11-22T14:09:42;10.60;99.90
70145;DHT22;57510;51.068;3.872;2022-11-22T14:18:25;10.40;99.90
70145;DHT22;57510;51.068;3.872;2022-11-22T14:31:32;10.70;99.90
70145;DHT22;57510;51.068;3.872;2022-11-22T14:36:44;10.70;99.90
70145;DHT22;57510;51.068;3.872;2022-11-22T14:47:53;10.80;99.40
70145;DHT22;57510;51.068;3.872;2022-11-22T14:56:07;10.90;99.40
70145;DHT22;57510;51.068;3.872;2022-11-22T14:58:39;10.80;99.20
70145;DHT22;57510;51.068;3.872;2022-11-22T15:17:29;10.50;98.90
70145;DHT22;57510;51.068;3.872;2022-11-22T15:19:56;10.50;99.00
70145;DHT22;57510;51.068;3.872;2022-11-22T15:22:28;10.30;99.30
70145;DHT22;57510;51.068;3.872;2022-11-22T15:24:56;10.10;99.50
70145;DHT22;57510;51.068;3.872;2022-11-22T15:27:28;10.00;99.80
70145;DHT22;57510;51.068;3.872;2022-11-22T15:30:21;10.00;99.70
70145;DHT22;57510;51.068;3.872;2022-11-22T15:32:50;9.80;99.90
70145;DHT22;57510;51.068;3.872;2022-11-22T15:35:19;9.70;99.90
70145;DHT22;57510;51.068;3.872;2022-11-22T15:40:23;9.60;99.90
70145;DHT22;57510;51.068;3.872;2022-11-22T15:42:57;9.50;99.90
70145;DHT22;57510;51.068;3.872;2022-11-22T15:45:25;9.40;99.90
70145;DHT22;57510;51.068;3.872;2022-11-22T15:48:04;9.40;99.90
70145;DHT22;57510;51.068;3.872;2022-11-22T15:50:31;9.40;99.90
70145;DHT22;57510;51.068;3.872;2022-11-22T15:58:56;9.50;99.90
70145;DHT22;57510;51.068;3.872;2022-11-22T16:01:22;9.60;99.90
70145;DHT22;57510;51.068;3.872;2022-11-22T16:03:50;9.60;99.90
70145;DHT22;57510;51.068;3.872;2022-11-22T16:06:27;9.60;99.90
70145;DHT22;57510;51.068;3.872;2022-11-22T16:09:04;9.60;99.90
70145;DHT22;57510;51.068;3.872;2022-11-22T16:11:36;9.60;99.90
70145;DHT22;57510;51.068;3.872;2022-11-22T16:14:03;9.60;99.90
70145;DHT22;57510;51.068;3.872;2022-11-22T16:16:31;9.60;99.90
70145;DHT22;57510;51.068;3.872;2022-11-22T16:19:33;9.50;99.90
70145;DHT22;57510;51.068;3.872;2022-11-22T16:22:00;9.60;99.90
70145;DHT22;57510;51.068;3.872;2022-11-22T16:24:28;9.60;99.90
70145;DHT22;57510;51.068;3.872;2022-11-22T16:26:59;9.70;99.90
70145;DHT22;57510;51.068;3.872;2022-11-22T16:29:26;9.70;99.90
70145;DHT22;57510;51.068;3.872;2022-11-22T16:34:25;9.70;99.90
70145;DHT22;57510;51.068;3.872;2022-11-22T16:36:51;9.60;99.90
70145;DHT22;57510;51.068;3.872;2022-11-22T16:39:20;9.60;99.90
70145;DHT22;57510;51.068;3.872;2022-11-22T16:41:45;9.70;99.90
70145;DHT22;57510;51.068;3.872;2022-11-22T16:44:13;9.70;99.90
70145;DHT22;57510;51.068;3.872;2022-11-22T16:46:41;9.70;99.90
70145;DHT22;57510;51.068;3.872;2022-11-22T16:49:17;9.70;99.90
70145;DHT22;57510;51.068;3.872;2022-11-22T16:51:43;9.80;99.90
70145;DHT22;57510;51.068;3.872;2022-11-22T16:54:13;9.70;99.90
70145;DHT22;57510;51.068;3.872;2022-11-22T16:56:40;9.70;99.90
70145;DHT22;57510;51.068;3.872;2022-11-22T16:59:07;9.60;99.90
70145;DHT22;57510;51.068;3.872;2022-11-22T17:01:34;9.60;99.90
70145;DHT22;57510;51.068;3.872;2022-11-22T17:04:00;9.60;99.90
70145;DHT22;57510;51.068;3.872;2022-11-22T17:06:28;9.60;99.90
70145;DHT22;57510;51.068;3.872;2022-11-22T17:08:56;9.60;99.90
70145;DHT22;57510;51.068;3.872;2022-11-22T17:11:28;9.70;99.90
70145;DHT22;57510;51.068;3.872;2022-11-22T17:13:55;9.70;99.90
70145;DHT22;57510;51.068;3.872;2022-11-22T17:16:20;9.70;99.90
70145;DHT22;57510;51.068;3.872;2022-11-22T17:18:50;9.70;99.90
70145;DHT22;57510;51.068;3.872;2022-11-22T17:21:25;9.70;99.90
70145;DHT22;57510;51.068;3.872;2022-11-22T17:23:57;9.80;99.90
70145;DHT22;57510;51.068;3.872;2022-11-22T17:26:24;9.80;99.90
70145;DHT22;57510;51.068;3.872;2022-11-22T17:28:56;9.80;99.90
70145;DHT22;57510;51.068;3.872;2022-11-22T17:31:22;9.80;99.90
70145;DHT22;57510;51.068;3.872;2022-11-22T17:33:51;9.80;99.90
70145;DHT22;57510;51.068;3.872;2022-11-22T17:36:31;9.70;99.90
70145;DHT22;57510;51.068;3.872;2022-11-22T17:38:59;9.70;99.90
70145;DHT22;57510;51.068;3.872;2022-11-22T17:41:26;9.70;99.90
70145;DHT22;57510;51.068;3.872;2022-11-22T17:43:52;9.80;99.90
70145;DHT22;57510;51.068;3.872;2022-11-22T17:46:19;9.70;99.90
70145;DHT22;57510;51.068;3.872;2022-11-22T17:48:56;9.70;99.90
70145;DHT22;57510;51.068;3.872;2022-11-22T17:51:23;9.80;99.90
70145;DHT22;57510;51.068;3.872;2022-11-22T17:53:49;9.80;99.90
70145;DHT22;57510;51.068;3.872;2022-11-22T17:56:15;9.80;99.90
70145;DHT22;57510;51.068;3.872;2022-11-22T17:58:42;9.90;99.90
70145;DHT22;57510;51.068;3.872;2022-11-22T18:01:10;9.90;99.90
70145;DHT22;57510;51.068;3.872;2022-11-22T18:03:38;9.90;99.90
70145;DHT22;57510;51.068;3.872;2022-11-22T18:06:03;9.90;99.90
70145;DHT22;57510;51.068;3.872;2022-11-22T18:08:29;10.00;99.90
70145;DHT22;57510;51.068;3.872;2022-11-22T18:10:57;10.00;99.90
70145;DHT22;57510;51.068;3.872;2022-11-22T18:13:28;9.90;99.90
70145;DHT22;57510;51.068;3.872;2022-11-22T18:15:58;9.90;99.90
70145;DHT22;57510;51.068;3.872;2022-11-22T18:18:24;9.90;99.90
70145;DHT22;57510;51.068;3.872;2022-11-22T18:20:51;9.80;99.90
70145;DHT22;57510;51.068;3.872;2022-11-22T18:23:22;9.90;99.90
70145;DHT22;57510;51.068;3.872;2022-11-22T18:25:48;9.80;99.90
70145;DHT22;57510;51.068;3.872;2022-11-22T18:28:15;9.80;99.90
70145;DHT22;57510;51.068;3.872;2022-11-22T18:30:41;9.80;99.90